createdAt,value
2019-03-06T00:02:56.156Z,62.00
2019-03-06T00:06:00.558Z,62.00
2019-03-06T00:09:04.963Z,62.00
2019-03-06T00:12:09.349Z,62.00
2019-03-06T00:15:13.753Z,62.00
2019-03-06T00:18:18.132Z,62.00
2019-03-06T00:21:22.539Z,62.00
2019-03-06T00:24:26.944Z,62.00
2019-03-06T00:27:31.331Z,61.00
2019-03-06T00:30:35.733Z,61.00
2019-03-06T00:33:40.115Z,61.00
2019-03-06T00:36:44.524Z,60.00
2019-03-06T00:39:37.859Z,61.00
2019-03-06T00:42:42.243Z,60.00
2019-03-06T00:45:46.648Z,61.00
2019-03-06T00:48:51.036Z,62.00
2019-03-06T00:51:55.442Z,60.00
2019-03-06T00:54:59.849Z,61.00
2019-03-06T00:58:04.220Z,59.00
2019-03-06T01:01:08.616Z,61.00
2019-03-06T01:04:12.995Z,59.00
2019-03-06T01:07:17.398Z,59.00
2019-03-06T01:10:21.798Z,61.00
2019-03-06T01:13:26.169Z,59.00
2019-03-06T01:16:30.570Z,59.00
2019-03-06T01:19:23.875Z,59.00
2019-03-06T01:22:28.274Z,59.00
2019-03-06T01:25:32.689Z,59.00
2019-03-06T01:28:37.068Z,59.00
2019-03-06T01:31:41.477Z,60.00
2019-03-06T01:34:45.845Z,59.00
2019-03-06T01:37:50.250Z,60.00
2019-03-06T01:40:54.636Z,59.00
2019-03-06T01:43:59.040Z,59.00
2019-03-06T01:47:03.431Z,59.00
2019-03-06T01:49:56.733Z,60.00
2019-03-06T01:53:01.128Z,60.00
2019-03-06T01:56:05.506Z,59.00
2019-03-06T01:59:09.913Z,60.00
2019-03-06T02:02:14.315Z,59.00
2019-03-06T02:05:18.694Z,59.00
2019-03-06T02:08:23.097Z,59.00
2019-03-06T02:11:27.477Z,59.00
2019-03-06T02:14:31.879Z,60.00
2019-03-06T02:17:36.284Z,59.00
2019-03-06T02:20:40.661Z,60.00
2019-03-06T02:23:45.057Z,59.00
2019-03-06T02:26:49.435Z,59.00
2019-03-06T02:29:42.767Z,59.00
2019-03-06T02:32:47.171Z,60.00
2019-03-06T02:35:51.549Z,59.00
2019-03-06T02:38:55.942Z,59.00
2019-03-06T02:42:00.328Z,59.00
2019-03-06T02:45:04.723Z,59.00
2019-03-06T02:48:09.123Z,59.00
2019-03-06T02:51:13.501Z,60.00
2019-03-06T02:54:17.903Z,59.00
2019-03-06T02:57:22.276Z,59.00
2019-03-06T03:00:26.680Z,59.00
2019-03-06T03:03:31.080Z,59.00
2019-03-06T03:06:35.471Z,59.00
2019-03-06T03:09:28.799Z,59.00
2019-03-06T03:12:33.179Z,59.00
2019-03-06T03:15:37.577Z,59.00
2019-03-06T03:18:41.981Z,59.00
2019-03-06T03:21:46.358Z,59.00
2019-03-06T03:24:50.765Z,59.00
2019-03-06T03:27:55.148Z,59.00
2019-03-06T03:30:59.553Z,59.00
2019-03-06T03:34:03.960Z,59.00
2019-03-06T03:37:08.354Z,59.00
2019-03-06T03:40:12.745Z,59.00
2019-03-06T03:43:17.129Z,59.00
2019-03-06T03:46:21.536Z,59.00
2019-03-06T03:49:14.865Z,59.00
2019-03-06T03:52:19.250Z,59.00
2019-03-06T03:55:23.652Z,59.00
2019-03-06T03:58:28.042Z,59.00
2019-03-06T04:01:32.452Z,59.00
2019-03-06T04:04:36.859Z,59.00
2019-03-06T04:07:41.242Z,59.00
2019-03-06T04:10:45.650Z,60.00
2019-03-06T04:13:50.042Z,59.00
2019-03-06T04:16:54.439Z,59.00
2019-03-06T04:19:47.786Z,59.00
2019-03-06T04:22:52.176Z,59.00
2019-03-06T04:25:56.576Z,60.00
2019-03-06T04:29:00.975Z,59.00
2019-03-06T04:32:05.364Z,59.00
2019-03-06T04:35:09.776Z,59.00
2019-03-06T04:38:14.152Z,59.00
2019-03-06T04:41:18.556Z,59.00
2019-03-06T04:44:22.937Z,59.00
2019-03-06T04:47:27.344Z,59.00
2019-03-06T04:50:31.747Z,59.00
2019-03-06T04:53:36.132Z,59.00
2019-03-06T04:56:40.533Z,59.00
2019-03-06T04:59:33.846Z,59.00
2019-03-06T05:02:38.255Z,60.00
2019-03-06T05:05:42.665Z,59.00
2019-03-06T05:08:47.045Z,60.00
2019-03-06T05:11:51.454Z,59.00
2019-03-06T05:14:55.836Z,60.00
2019-03-06T05:18:00.282Z,59.00
2019-03-06T05:21:04.649Z,59.00
2019-03-06T05:24:09.027Z,59.00
2019-03-06T05:27:13.440Z,59.00
2019-03-06T05:30:17.820Z,59.00
2019-03-06T05:33:22.225Z,59.00
2019-03-06T05:36:26.626Z,59.00
2019-03-06T05:39:19.953Z,60.00
2019-03-06T05:42:24.367Z,61.00
2019-03-06T05:45:28.774Z,59.00
2019-03-06T05:48:33.158Z,59.00
2019-03-06T05:51:37.563Z,59.00
2019-03-06T05:54:41.971Z,59.00
2019-03-06T05:57:46.353Z,61.00
2019-03-06T06:00:50.757Z,60.00
2019-03-06T06:03:55.146Z,60.00
2019-03-06T06:06:59.550Z,60.00
2019-03-06T06:09:52.870Z,60.00
2019-03-06T06:12:57.256Z,63.00
2019-03-06T06:16:01.666Z,60.00
2019-03-06T06:19:06.041Z,61.00
2019-03-06T06:22:10.492Z,60.00
2019-03-06T06:25:15.870Z,60.00
2019-03-06T06:28:21.296Z,61.00
2019-03-06T06:31:26.744Z,61.00
2019-03-06T06:34:31.141Z,60.00
2019-03-06T06:37:35.554Z,60.00
2019-03-06T06:40:39.935Z,60.00
2019-03-06T06:43:44.366Z,60.00
2019-03-06T06:46:48.750Z,62.00
2019-03-06T06:49:43.075Z,60.00
2019-03-06T06:52:47.477Z,61.00
2019-03-06T06:55:51.864Z,60.00
2019-03-06T06:58:56.268Z,61.00
2019-03-06T07:02:00.683Z,62.00
2019-03-06T07:05:05.072Z,65.00
2019-03-06T07:08:09.490Z,64.00
2019-03-06T07:11:13.879Z,65.00
2019-03-06T07:14:18.267Z,66.00
2019-03-06T07:17:22.691Z,64.00
2019-03-06T07:20:27.092Z,65.00
2019-03-06T07:23:31.501Z,64.00
2019-03-06T07:26:36.887Z,62.00
2019-03-06T07:29:30.226Z,61.00
2019-03-06T07:32:34.629Z,59.00
2019-03-06T07:35:39.022Z,60.00
2019-03-06T07:38:43.431Z,61.00
2019-03-06T07:41:47.812Z,59.00
2019-03-06T07:44:52.262Z,60.00
2019-03-06T07:47:56.622Z,62.00
2019-03-06T07:51:01.025Z,60.00
2019-03-06T07:54:05.438Z,60.00
2019-03-06T07:57:09.854Z,63.00
2019-03-06T08:00:15.296Z,62.00
2019-03-06T08:03:19.664Z,62.00
2019-03-06T08:06:24.053Z,63.00
2019-03-06T08:09:17.397Z,63.00
2019-03-06T08:12:21.807Z,62.00
2019-03-06T08:15:26.236Z,66.00
2019-03-06T08:18:30.632Z,65.00
2019-03-06T08:21:36.062Z,62.00
2019-03-06T08:24:40.474Z,65.00
2019-03-06T08:27:44.889Z,66.00
2019-03-06T08:30:49.316Z,65.00
2019-03-06T08:33:53.778Z,64.00
2019-03-06T08:36:58.204Z,61.00
2019-03-06T08:39:51.539Z,62.00
2019-03-06T08:42:55.963Z,61.00
2019-03-06T08:46:00.393Z,62.00
2019-03-06T08:49:04.799Z,63.00
2019-03-06T08:52:09.231Z,66.00
2019-03-06T08:55:13.639Z,61.00
2019-03-06T08:58:18.069Z,60.00
2019-03-06T09:01:22.499Z,60.00
2019-03-06T09:04:26.911Z,59.00
2019-03-06T09:07:31.343Z,63.00
2019-03-06T09:10:35.754Z,66.00
2019-03-06T09:13:40.190Z,61.00
2019-03-06T09:16:44.631Z,62.00
2019-03-06T09:19:37.965Z,63.00
2019-03-06T09:22:42.434Z,64.00
2019-03-06T09:25:46.787Z,66.00
2019-03-06T09:29:00.447Z,63.00
2019-03-06T09:31:55.663Z,60.00
2019-03-06T09:35:00.110Z,61.00
2019-03-06T09:38:10.796Z,63.00
2019-03-06T09:41:08.954Z,60.00
2019-03-06T09:44:13.375Z,62.00
2019-03-06T09:47:17.823Z,67.00
2019-03-06T09:50:22.230Z,65.00
2019-03-06T09:53:26.662Z,67.00
2019-03-06T09:56:31.065Z,70.00
2019-03-06T09:59:24.424Z,67.00
2019-03-06T10:02:28.852Z,67.00
2019-03-06T10:05:33.252Z,65.00
2019-03-06T10:08:37.681Z,71.00
2019-03-06T10:11:42.082Z,69.00
2019-03-06T10:14:46.515Z,65.00
2019-03-06T10:17:50.934Z,67.00
2019-03-06T10:20:55.336Z,66.00
2019-03-06T10:23:59.759Z,63.00
2019-03-06T10:27:04.162Z,66.00
2019-03-06T10:29:58.525Z,69.00
2019-03-06T10:33:02.951Z,67.00
2019-03-06T10:36:07.357Z,66.00
2019-03-06T10:39:11.778Z,67.00
2019-03-06T10:42:16.179Z,67.00
2019-03-06T10:45:20.643Z,67.00
2019-03-06T10:48:25.059Z,65.00
2019-03-06T10:51:31.038Z,68.00
2019-03-06T10:54:33.928Z,67.00
2019-03-06T10:57:38.317Z,66.00
2019-03-06T11:00:42.763Z,64.00
2019-03-06T11:03:47.156Z,64.00
2019-03-06T11:06:51.575Z,65.00
2019-03-06T11:09:44.939Z,65.00
2019-03-06T11:12:49.345Z,67.00
2019-03-06T11:15:55.970Z,65.00
2019-03-06T11:18:58.216Z,66.00
2019-03-06T11:22:02.636Z,64.00
2019-03-06T11:25:07.085Z,67.00
2019-03-06T11:28:11.487Z,66.00
2019-03-06T11:31:15.927Z,66.00
2019-03-06T11:34:20.362Z,67.00
2019-03-06T11:37:24.780Z,67.00
2019-03-06T11:40:29.221Z,67.00
2019-03-06T11:43:33.636Z,68.00
2019-03-06T11:46:38.078Z,68.00
2019-03-06T11:49:31.439Z,67.00
2019-03-06T11:52:35.863Z,68.00
2019-03-06T11:55:40.305Z,69.00
2019-03-06T11:58:44.712Z,67.00
2019-03-06T12:01:49.136Z,67.00
2019-03-06T12:04:54.591Z,70.00
2019-03-06T12:07:58.989Z,65.00
2019-03-06T12:11:03.423Z,66.00
2019-03-06T12:14:07.821Z,63.00
2019-03-06T12:17:12.246Z,64.00
2019-03-06T12:20:17.689Z,67.00
2019-03-06T12:23:22.094Z,67.00
2019-03-06T12:26:26.518Z,67.00
2019-03-06T12:29:19.849Z,67.00
2019-03-06T12:32:24.265Z,67.00
2019-03-06T12:35:28.690Z,66.00
2019-03-06T12:38:33.090Z,64.00
2019-03-06T12:41:37.520Z,65.00
2019-03-06T12:44:41.920Z,67.00
2019-03-06T12:47:55.006Z,67.00
2019-03-06T12:50:56.052Z,66.00
2019-03-06T12:53:55.176Z,68.00
2019-03-06T12:56:59.606Z,68.00
2019-03-06T12:59:52.946Z,66.00
2019-03-06T13:02:57.383Z,66.00
2019-03-06T13:06:01.815Z,67.00
2019-03-06T13:09:06.232Z,66.00
2019-03-06T13:12:10.662Z,68.00
2019-03-06T13:15:15.080Z,67.00
2019-03-06T13:18:19.509Z,65.00
2019-03-06T13:21:23.959Z,64.00
2019-03-06T13:24:28.359Z,66.00
2019-03-06T13:27:32.789Z,67.00
2019-03-06T13:30:37.195Z,66.00
2019-03-06T13:33:41.627Z,66.00
2019-03-06T13:36:46.059Z,66.00
2019-03-06T13:39:39.393Z,69.00
2019-03-06T13:42:43.823Z,66.00
2019-03-06T13:45:49.249Z,68.00
2019-03-06T13:48:53.710Z,70.00
2019-03-06T13:51:58.186Z,70.00
2019-03-06T13:55:02.616Z,68.00
2019-03-06T13:58:07.047Z,66.00
2019-03-06T14:01:11.469Z,67.00
2019-03-06T14:04:15.899Z,68.00
2019-03-06T14:07:20.324Z,66.00
2019-03-06T14:10:24.734Z,66.00
2019-03-06T14:13:30.175Z,68.00
2019-03-06T14:16:35.592Z,66.00
2019-03-06T14:19:28.961Z,65.00
2019-03-06T14:22:33.420Z,67.00
2019-03-06T14:25:37.824Z,66.00
2019-03-06T14:28:42.255Z,65.00
2019-03-06T14:31:46.667Z,67.00
2019-03-06T14:34:51.125Z,65.00
2019-03-06T14:37:55.531Z,66.00
2019-03-06T14:40:59.942Z,66.00
2019-03-06T14:44:04.363Z,67.00
2019-03-06T14:47:08.776Z,68.00
2019-03-06T14:50:13.201Z,67.00
2019-03-06T14:53:17.615Z,67.00
2019-03-06T14:56:22.040Z,68.00
2019-03-06T14:59:15.389Z,70.00
2019-03-06T15:02:19.783Z,69.00
2019-03-06T15:05:24.214Z,67.00
2019-03-06T15:08:28.609Z,68.00
2019-03-06T15:11:33.446Z,68.00
2019-03-06T15:14:38.054Z,66.00
2019-03-06T15:17:41.863Z,69.00
2019-03-06T15:20:46.283Z,67.00
2019-03-06T15:23:50.683Z,68.00
2019-03-06T15:26:55.102Z,68.00
2019-03-06T15:29:48.456Z,69.00
2019-03-06T15:32:52.917Z,67.00
2019-03-06T15:35:57.443Z,67.00
2019-03-06T15:39:01.844Z,66.00
2019-03-06T15:42:06.259Z,70.00
2019-03-06T15:45:10.681Z,68.00
2019-03-06T15:48:15.088Z,66.00
2019-03-06T15:51:19.508Z,73.00
2019-03-06T15:54:24.006Z,68.00
2019-03-06T15:57:28.461Z,65.00
2019-03-06T16:00:32.884Z,66.00
2019-03-06T16:03:37.280Z,65.00
2019-03-06T16:06:42.718Z,64.00
2019-03-06T16:09:36.039Z,64.00
2019-03-06T16:12:40.456Z,61.00
2019-03-06T16:15:44.853Z,62.00
2019-03-06T16:18:49.269Z,67.00
2019-03-06T16:21:53.692Z,67.00
2019-03-06T16:24:58.098Z,66.00
2019-03-06T16:28:02.512Z,65.00
2019-03-06T16:31:06.907Z,64.00
2019-03-06T16:34:11.322Z,65.00
2019-03-06T16:37:15.733Z,63.00
2019-03-06T16:40:20.123Z,60.00
2019-03-06T16:43:24.534Z,61.00
2019-03-06T16:46:28.933Z,60.00
2019-03-06T16:49:22.270Z,60.00
2019-03-06T16:52:26.684Z,59.00
2019-03-06T16:55:31.086Z,59.00
2019-03-06T16:58:35.501Z,61.00
2019-03-06T17:01:40.913Z,60.00
2019-03-06T17:04:44.390Z,60.00
2019-03-06T17:07:48.811Z,61.00
2019-03-06T17:10:53.258Z,60.00
2019-03-06T17:13:57.670Z,60.00
2019-03-06T17:17:03.030Z,64.00
2019-03-06T17:19:56.497Z,61.00
2019-03-06T17:23:00.932Z,60.00
2019-03-06T17:26:05.399Z,60.00
2019-03-06T17:29:09.794Z,61.00
2019-03-06T17:32:14.260Z,60.00
2019-03-06T17:35:18.723Z,62.00
2019-03-06T17:38:23.117Z,60.00
2019-03-06T17:41:27.544Z,60.00
2019-03-06T17:44:31.972Z,63.00
2019-03-06T17:47:36.373Z,66.00
2019-03-06T17:50:40.805Z,67.00
2019-03-06T17:53:45.183Z,64.00
2019-03-06T17:56:49.602Z,63.00
2019-03-06T17:59:43.362Z,66.00
2019-03-06T18:02:47.566Z,62.00
2019-03-06T18:05:51.835Z,64.00
2019-03-06T18:08:56.230Z,66.00
2019-03-06T18:12:00.643Z,60.00
2019-03-06T18:15:05.093Z,61.00
2019-03-06T18:18:09.489Z,60.00
2019-03-06T18:21:13.898Z,60.00
2019-03-06T18:24:18.288Z,60.00
2019-03-06T18:27:26.411Z,60.00
2019-03-06T18:30:27.150Z,60.00
2019-03-06T18:33:31.541Z,61.00
2019-03-06T18:36:35.952Z,60.00
2019-03-06T18:39:29.271Z,59.00
2019-03-06T18:42:33.823Z,63.00
2019-03-06T18:45:38.239Z,60.00
2019-03-06T18:48:42.628Z,62.00
2019-03-06T18:51:47.039Z,62.00
2019-03-06T18:54:53.289Z,59.00
2019-03-06T18:57:57.255Z,60.00
2019-03-06T19:01:01.708Z,61.00
2019-03-06T19:04:06.120Z,60.00
2019-03-06T19:07:10.526Z,60.00
2019-03-06T19:10:14.933Z,60.00
2019-03-06T19:13:19.347Z,61.00
2019-03-06T19:16:23.735Z,60.00
2019-03-06T19:19:17.081Z,61.00
2019-03-06T19:22:21.465Z,61.00
2019-03-06T19:25:25.885Z,60.00
2019-03-06T19:28:30.290Z,59.00
2019-03-06T19:31:34.684Z,63.00
2019-03-06T19:34:39.098Z,62.00
2019-03-06T19:37:43.483Z,62.00
2019-03-06T19:40:47.896Z,59.00
2019-03-06T19:43:52.309Z,60.00
2019-03-06T19:46:56.701Z,68.00
2019-03-06T19:49:50.038Z,62.00
2019-03-06T19:52:54.434Z,66.00
2019-03-06T19:55:58.843Z,63.00
2019-03-06T19:59:03.256Z,64.00
2019-03-06T20:02:07.643Z,63.00
2019-03-06T20:05:12.054Z,60.00
2019-03-06T20:08:16.446Z,64.00
2019-03-06T20:11:20.872Z,62.00
2019-03-06T20:14:25.275Z,60.00
2019-03-06T20:17:29.665Z,61.00
2019-03-06T20:20:34.075Z,61.00
2019-03-06T20:23:38.470Z,60.00
2019-03-06T20:26:42.890Z,59.00
2019-03-06T20:29:36.232Z,60.00
2019-03-06T20:32:40.625Z,61.00
2019-03-06T20:35:45.037Z,60.00
2019-03-06T20:38:49.485Z,60.00
2019-03-06T20:41:53.994Z,61.00
2019-03-06T20:44:58.453Z,60.00
2019-03-06T20:48:02.903Z,59.00
2019-03-06T20:51:08.437Z,59.00
2019-03-06T20:54:11.815Z,60.00
2019-03-06T20:57:16.237Z,59.00
2019-03-06T21:00:20.697Z,59.00
2019-03-06T21:03:25.141Z,59.00
2019-03-06T21:06:33.665Z,60.00
2019-03-06T21:09:22.967Z,59.00
2019-03-06T21:12:27.433Z,60.00
2019-03-06T21:15:31.863Z,60.00
2019-03-06T21:18:37.352Z,60.00
2019-03-06T21:21:41.801Z,59.00
2019-03-06T21:24:46.256Z,62.00
2019-03-06T21:27:50.769Z,62.00
2019-03-06T21:30:55.178Z,63.00
2019-03-06T21:33:59.636Z,60.00
2019-03-06T21:37:04.130Z,59.00
2019-03-06T21:39:57.474Z,60.00
2019-03-06T21:43:01.960Z,59.00
2019-03-06T21:46:06.381Z,60.00
2019-03-06T21:49:10.813Z,60.00
2019-03-06T21:52:15.274Z,59.00
2019-03-06T21:55:19.712Z,60.00
2019-03-06T21:58:24.167Z,60.00
2019-03-06T22:01:28.603Z,60.00
2019-03-06T22:04:33.364Z,59.00
2019-03-06T22:07:37.606Z,60.00
2019-03-06T22:10:42.048Z,60.00
2019-03-06T22:13:46.507Z,59.00
2019-03-06T22:16:50.936Z,63.00
2019-03-06T22:19:44.303Z,62.00
2019-03-06T22:22:48.837Z,61.00
2019-03-06T22:25:53.267Z,63.00
2019-03-06T22:28:57.721Z,62.00
2019-03-06T22:32:02.100Z,62.00
2019-03-06T22:35:06.505Z,64.00
2019-03-06T22:38:10.916Z,65.00
2019-03-06T22:41:15.308Z,65.00
2019-03-06T22:44:19.721Z,65.00
2019-03-06T22:47:24.115Z,65.00
2019-03-06T22:50:28.517Z,66.00
2019-03-06T22:53:32.934Z,65.00
2019-03-06T22:56:37.321Z,66.00
2019-03-06T22:59:30.662Z,64.00
2019-03-06T23:02:35.059Z,65.00
2019-03-06T23:05:39.486Z,67.00
2019-03-06T23:08:43.900Z,64.00
2019-03-06T23:11:48.294Z,65.00
2019-03-06T23:14:52.758Z,66.00
2019-03-06T23:17:57.100Z,64.00
2019-03-06T23:21:01.524Z,65.00
2019-03-06T23:24:05.934Z,65.00
2019-03-06T23:27:10.337Z,67.00
2019-03-06T23:30:14.757Z,68.00
2019-03-06T23:33:19.149Z,64.00
2019-03-06T23:36:23.555Z,66.00
2019-03-06T23:39:16.893Z,67.00
2019-03-06T23:42:21.297Z,67.00
2019-03-06T23:45:25.711Z,68.00
2019-03-06T23:48:30.103Z,65.00
2019-03-06T23:51:34.511Z,67.00
2019-03-06T23:54:38.931Z,69.00
2019-03-06T23:57:43.323Z,66.00
